sensor_id;sensor_type;location;lat;lon;timestamp;temperature;humidity
43894;DHT22;29556;50.846;4.442;2022-12-29T00:02:22;12.60;92.30
43894;DHT22;29556;50.846;4.442;2022-12-29T00:04:49;12.60;92.20
43894;DHT22;29556;50.846;4.442;2022-12-29T00:07:16;12.70;92.20
43894;DHT22;29556;50.846;4.442;2022-12-29T00:09:42;12.60;92.10
43894;DHT22;29556;50.846;4.442;2022-12-29T00:12:07;12.60;91.90
43894;DHT22;29556;50.846;4.442;2022-12-29T00:14:33;12.60;91.80
43894;DHT22;29556;50.846;4.442;2022-12-29T00:17:17;12.50;91.50
43894;DHT22;29556;50.846;4.442;2022-12-29T00:19:42;12.60;91.70
43894;DHT22;29556;50.846;4.442;2022-12-29T00:22:27;12.50;91.50
43894;DHT22;29556;50.846;4.442;2022-12-29T00:25:12;12.50;91.50
43894;DHT22;29556;50.846;4.442;2022-12-29T00:27:57;12.50;91.30
43894;DHT22;29556;50.846;4.442;2022-12-29T00:30:41;12.40;91.00
43894;DHT22;29556;50.846;4.442;2022-12-29T00:33:29;12.50;90.90
43894;DHT22;29556;50.846;4.442;2022-12-29T00:36:17;12.50;90.90
43894;DHT22;29556;50.846;4.442;2022-12-29T00:38:48;12.60;90.80
43894;DHT22;29556;50.846;4.442;2022-12-29T00:41:33;12.60;90.60
43894;DHT22;29556;50.846;4.442;2022-12-29T00:44:25;12.60;90.40
43894;DHT22;29556;50.846;4.442;2022-12-29T00:46:50;12.50;90.20
43894;DHT22;29556;50.846;4.442;2022-12-29T00:49:16;12.40;90.40
43894;DHT22;29556;50.846;4.442;2022-12-29T00:54:23;12.50;90.00
43894;DHT22;29556;50.846;4.442;2022-12-29T00:56:51;12.60;90.10
43894;DHT22;29556;50.846;4.442;2022-12-29T00:59:17;12.60;90.20
43894;DHT22;29556;50.846;4.442;2022-12-29T01:01:44;12.60;90.00
43894;DHT22;29556;50.846;4.442;2022-12-29T01:04:10;12.60;89.90
43894;DHT22;29556;50.846;4.442;2022-12-29T01:06:36;12.60;89.40
43894;DHT22;29556;50.846;4.442;2022-12-29T01:09:03;12.70;89.50
43894;DHT22;29556;50.846;4.442;2022-12-29T01:11:48;12.60;89.80
43894;DHT22;29556;50.846;4.442;2022-12-29T01:14:14;12.70;90.00
43894;DHT22;29556;50.846;4.442;2022-12-29T01:16:40;12.60;90.10
43894;DHT22;29556;50.846;4.442;2022-12-29T01:19:05;12.70;90.10
43894;DHT22;29556;50.846;4.442;2022-12-29T01:21:31;12.70;90.20
43894;DHT22;29556;50.846;4.442;2022-12-29T01:23:57;12.60;90.40
43894;DHT22;29556;50.846;4.442;2022-12-29T01:26:24;12.70;90.70
43894;DHT22;29556;50.846;4.442;2022-12-29T01:28:49;12.60;91.10
43894;DHT22;29556;50.846;4.442;2022-12-29T01:31:15;12.60;91.30
43894;DHT22;29556;50.846;4.442;2022-12-29T01:33:41;12.50;91.50
43894;DHT22;29556;50.846;4.442;2022-12-29T01:36:10;12.50;91.60
43894;DHT22;29556;50.846;4.442;2022-12-29T01:38:37;12.50;91.70
43894;DHT22;29556;50.846;4.442;2022-12-29T01:41:04;12.50;91.70
43894;DHT22;29556;50.846;4.442;2022-12-29T01:43:46;12.50;91.70
43894;DHT22;29556;50.846;4.442;2022-12-29T01:48:52;12.50;91.80
43894;DHT22;29556;50.846;4.442;2022-12-29T01:51:20;12.60;91.80
43894;DHT22;29556;50.846;4.442;2022-12-29T01:53:46;12.40;91.80
43894;DHT22;29556;50.846;4.442;2022-12-29T01:56:15;12.40;92.10
43894;DHT22;29556;50.846;4.442;2022-12-29T01:58:44;12.40;92.20
43894;DHT22;29556;50.846;4.442;2022-12-29T02:01:12;12.30;92.20
43894;DHT22;29556;50.846;4.442;2022-12-29T02:03:38;12.30;92.10
43894;DHT22;29556;50.846;4.442;2022-12-29T02:06:12;12.30;92.00
43894;DHT22;29556;50.846;4.442;2022-12-29T02:08:40;12.20;91.90
43894;DHT22;29556;50.846;4.442;2022-12-29T02:11:07;12.20;92.00
43894;DHT22;29556;50.846;4.442;2022-12-29T02:13:33;12.10;91.70
43894;DHT22;29556;50.846;4.442;2022-12-29T02:21:29;12.00;92.80
43894;DHT22;29556;50.846;4.442;2022-12-29T02:27:21;11.70;93.50
43894;DHT22;29556;50.846;4.442;2022-12-29T02:33:13;11.50;94.40
43894;DHT22;29556;50.846;4.442;2022-12-29T02:35:47;11.50;94.50
43894;DHT22;29556;50.846;4.442;2022-12-29T02:38:57;11.40;94.60
43894;DHT22;29556;50.846;4.442;2022-12-29T02:41:31;11.50;95.00
43894;DHT22;29556;50.846;4.442;2022-12-29T02:47:00;11.30;95.50
43894;DHT22;29556;50.846;4.442;2022-12-29T02:49:39;11.30;95.80
43894;DHT22;29556;50.846;4.442;2022-12-29T02:52:18;11.30;95.90
43894;DHT22;29556;50.846;4.442;2022-12-29T02:54:48;11.30;96.00
43894;DHT22;29556;50.846;4.442;2022-12-29T02:59:50;11.20;95.90
43894;DHT22;29556;50.846;4.442;2022-12-29T03:10:41;11.00;95.90
43894;DHT22;29556;50.846;4.442;2022-12-29T03:19:04;10.70;96.90
43894;DHT22;29556;50.846;4.442;2022-12-29T03:21:37;10.70;97.20
43894;DHT22;29556;50.846;4.442;2022-12-29T03:24:27;10.70;97.60
43894;DHT22;29556;50.846;4.442;2022-12-29T03:26:57;10.60;97.70
43894;DHT22;29556;50.846;4.442;2022-12-29T03:29:24;10.60;98.00
43894;DHT22;29556;50.846;4.442;2022-12-29T03:31:51;10.60;98.10
43894;DHT22;29556;50.846;4.442;2022-12-29T03:34:20;10.70;98.00
43894;DHT22;29556;50.846;4.442;2022-12-29T03:36:54;10.80;98.00
43894;DHT22;29556;50.846;4.442;2022-12-29T03:39:22;10.80;98.00
43894;DHT22;29556;50.846;4.442;2022-12-29T03:41:51;10.80;98.00
43894;DHT22;29556;50.846;4.442;2022-12-29T03:44:18;10.80;98.00
43894;DHT22;29556;50.846;4.442;2022-12-29T03:46:43;10.80;97.90
43894;DHT22;29556;50.846;4.442;2022-12-29T03:49:09;11.00;97.90
43894;DHT22;29556;50.846;4.442;2022-12-29T03:51:35;10.90;97.90
43894;DHT22;29556;50.846;4.442;2022-12-29T03:54:00;10.90;97.80
43894;DHT22;29556;50.846;4.442;2022-12-29T03:56:26;10.90;97.80
43894;DHT22;29556;50.846;4.442;2022-12-29T03:58:51;10.80;97.80
43894;DHT22;29556;50.846;4.442;2022-12-29T04:01:17;10.80;97.90
43894;DHT22;29556;50.846;4.442;2022-12-29T04:03:43;10.80;97.90
43894;DHT22;29556;50.846;4.442;2022-12-29T04:06:11;10.80;97.80
43894;DHT22;29556;50.846;4.442;2022-12-29T04:08:37;10.70;97.80
43894;DHT22;29556;50.846;4.442;2022-12-29T04:11:02;10.70;97.60
43894;DHT22;29556;50.846;4.442;2022-12-29T04:13:28;10.80;97.70
43894;DHT22;29556;50.846;4.442;2022-12-29T04:15:54;10.60;97.60
43894;DHT22;29556;50.846;4.442;2022-12-29T04:18:20;10.60;97.50
43894;DHT22;29556;50.846;4.442;2022-12-29T04:20:45;10.70;97.50
43894;DHT22;29556;50.846;4.442;2022-12-29T04:23:27;10.60;97.30
43894;DHT22;29556;50.846;4.442;2022-12-29T04:25:52;10.60;97.20
43894;DHT22;29556;50.846;4.442;2022-12-29T04:28:18;10.60;97.20
43894;DHT22;29556;50.846;4.442;2022-12-29T04:30:44;10.60;97.20
43894;DHT22;29556;50.846;4.442;2022-12-29T04:33:10;10.60;97.10
43894;DHT22;29556;50.846;4.442;2022-12-29T04:35:36;10.70;97.10
43894;DHT22;29556;50.846;4.442;2022-12-29T04:38:02;10.70;97.00
43894;DHT22;29556;50.846;4.442;2022-12-29T04:40:28;10.80;97.00
43894;DHT22;29556;50.846;4.442;2022-12-29T04:42:53;10.70;97.00
43894;DHT22;29556;50.846;4.442;2022-12-29T04:45:19;10.70;97.10
43894;DHT22;29556;50.846;4.442;2022-12-29T04:47:45;10.70;97.10
43894;DHT22;29556;50.846;4.442;2022-12-29T04:50:11;10.70;97.10
43894;DHT22;29556;50.846;4.442;2022-12-29T04:52:36;10.70;97.00
43894;DHT22;29556;50.846;4.442;2022-12-29T04:55:03;10.70;97.10
43894;DHT22;29556;50.846;4.442;2022-12-29T04:57:29;10.80;97.20
43894;DHT22;29556;50.846;4.442;2022-12-29T04:59:54;10.80;97.10
43894;DHT22;29556;50.846;4.442;2022-12-29T05:02:20;10.90;97.20
43894;DHT22;29556;50.846;4.442;2022-12-29T05:04:45;10.90;97.10
43894;DHT22;29556;50.846;4.442;2022-12-29T05:07:12;10.90;97.00
43894;DHT22;29556;50.846;4.442;2022-12-29T05:09:37;10.90;97.00
43894;DHT22;29556;50.846;4.442;2022-12-29T05:12:03;11.10;96.90
43894;DHT22;29556;50.846;4.442;2022-12-29T05:14:29;11.00;96.60
43894;DHT22;29556;50.846;4.442;2022-12-29T05:16:55;11.10;96.60
43894;DHT22;29556;50.846;4.442;2022-12-29T05:19:20;11.00;96.40
43894;DHT22;29556;50.846;4.442;2022-12-29T05:21:46;11.00;96.30
43894;DHT22;29556;50.846;4.442;2022-12-29T05:24:12;11.00;95.90
43894;DHT22;29556;50.846;4.442;2022-12-29T05:26:37;11.00;96.00
43894;DHT22;29556;50.846;4.442;2022-12-29T05:29:03;11.10;96.10
43894;DHT22;29556;50.846;4.442;2022-12-29T05:31:28;11.20;96.00
43894;DHT22;29556;50.846;4.442;2022-12-29T05:33:54;11.10;95.70
43894;DHT22;29556;50.846;4.442;2022-12-29T05:36:20;11.10;95.60
43894;DHT22;29556;50.846;4.442;2022-12-29T05:38:45;11.10;95.30
43894;DHT22;29556;50.846;4.442;2022-12-29T05:41:11;11.20;95.30
43894;DHT22;29556;50.846;4.442;2022-12-29T05:43:36;11.20;95.30
43894;DHT22;29556;50.846;4.442;2022-12-29T05:46:02;11.20;94.90
43894;DHT22;29556;50.846;4.442;2022-12-29T05:48:28;11.20;94.60
43894;DHT22;29556;50.846;4.442;2022-12-29T05:50:54;11.30;94.50
43894;DHT22;29556;50.846;4.442;2022-12-29T05:53:20;11.20;94.20
43894;DHT22;29556;50.846;4.442;2022-12-29T05:55:49;11.20;94.20
43894;DHT22;29556;50.846;4.442;2022-12-29T05:58:16;11.20;94.10
43894;DHT22;29556;50.846;4.442;2022-12-29T06:00:42;11.20;93.60
43894;DHT22;29556;50.846;4.442;2022-12-29T06:03:08;11.10;93.40
43894;DHT22;29556;50.846;4.442;2022-12-29T06:05:33;11.10;93.40
43894;DHT22;29556;50.846;4.442;2022-12-29T06:07:59;11.20;93.40
43894;DHT22;29556;50.846;4.442;2022-12-29T06:10:25;11.20;93.70
43894;DHT22;29556;50.846;4.442;2022-12-29T06:12:50;11.10;93.40
43894;DHT22;29556;50.846;4.442;2022-12-29T06:15:17;11.00;92.90
43894;DHT22;29556;50.846;4.442;2022-12-29T06:17:42;11.10;93.20
43894;DHT22;29556;50.846;4.442;2022-12-29T06:20:09;11.10;92.90
43894;DHT22;29556;50.846;4.442;2022-12-29T06:22:35;11.10;93.00
43894;DHT22;29556;50.846;4.442;2022-12-29T06:25:01;11.00;92.70
43894;DHT22;29556;50.846;4.442;2022-12-29T06:27:27;11.00;92.50
43894;DHT22;29556;50.846;4.442;2022-12-29T06:29:53;11.00;92.60
43894;DHT22;29556;50.846;4.442;2022-12-29T06:32:18;11.00;92.50
43894;DHT22;29556;50.846;4.442;2022-12-29T06:34:44;11.00;92.60
43894;DHT22;29556;50.846;4.442;2022-12-29T06:37:10;11.00;92.20
43894;DHT22;29556;50.846;4.442;2022-12-29T06:39:36;11.00;92.20
43894;DHT22;29556;50.846;4.442;2022-12-29T06:42:02;11.00;92.20
43894;DHT22;29556;50.846;4.442;2022-12-29T06:44:28;11.00;92.50
43894;DHT22;29556;50.846;4.442;2022-12-29T06:46:54;11.10;92.40
43894;DHT22;29556;50.846;4.442;2022-12-29T06:49:20;11.20;92.20
43894;DHT22;29556;50.846;4.442;2022-12-29T06:51:46;11.10;91.60
43894;DHT22;29556;50.846;4.442;2022-12-29T06:54:12;11.10;91.90
43894;DHT22;29556;50.846;4.442;2022-12-29T06:56:38;11.30;92.10
43894;DHT22;29556;50.846;4.442;2022-12-29T06:59:03;11.20;91.20
43894;DHT22;29556;50.846;4.442;2022-12-29T07:01:30;11.20;91.40
43894;DHT22;29556;50.846;4.442;2022-12-29T07:03:55;11.20;91.20
43894;DHT22;29556;50.846;4.442;2022-12-29T07:06:21;11.30;91.20
43894;DHT22;29556;50.846;4.442;2022-12-29T07:08:46;11.30;91.10
43894;DHT22;29556;50.846;4.442;2022-12-29T07:11:12;11.20;91.10
43894;DHT22;29556;50.846;4.442;2022-12-29T07:13:38;11.20;91.40
43894;DHT22;29556;50.846;4.442;2022-12-29T07:16:10;11.20;91.30
43894;DHT22;29556;50.846;4.442;2022-12-29T07:18:35;11.20;91.10
43894;DHT22;29556;50.846;4.442;2022-12-29T07:21:02;11.20;91.20
43894;DHT22;29556;50.846;4.442;2022-12-29T07:23:28;11.20;91.20
43894;DHT22;29556;50.846;4.442;2022-12-29T07:26:02;11.30;91.10
43894;DHT22;29556;50.846;4.442;2022-12-29T07:28:29;11.20;90.80
43894;DHT22;29556;50.846;4.442;2022-12-29T07:30:55;11.30;90.80
43894;DHT22;29556;50.846;4.442;2022-12-29T07:33:20;11.20;90.60
43894;DHT22;29556;50.846;4.442;2022-12-29T07:35:46;11.30;90.70
43894;DHT22;29556;50.846;4.442;2022-12-29T07:38:12;11.30;90.70
43894;DHT22;29556;50.846;4.442;2022-12-29T07:40:38;11.30;90.60
43894;DHT22;29556;50.846;4.442;2022-12-29T07:43:03;11.30;90.50
43894;DHT22;29556;50.846;4.442;2022-12-29T07:45:29;11.30;90.40
43894;DHT22;29556;50.846;4.442;2022-12-29T07:47:55;11.30;90.20
43894;DHT22;29556;50.846;4.442;2022-12-29T07:50:20;11.30;90.50
43894;DHT22;29556;50.846;4.442;2022-12-29T07:52:46;11.30;90.10
43894;DHT22;29556;50.846;4.442;2022-12-29T07:55:16;11.30;90.10
43894;DHT22;29556;50.846;4.442;2022-12-29T07:57:42;11.30;89.70
43894;DHT22;29556;50.846;4.442;2022-12-29T08:00:08;11.40;89.60
43894;DHT22;29556;50.846;4.442;2022-12-29T08:02:35;11.40;89.30
43894;DHT22;29556;50.846;4.442;2022-12-29T08:05:01;11.40;88.70
43894;DHT22;29556;50.846;4.442;2022-12-29T08:07:26;11.50;89.50
43894;DHT22;29556;50.846;4.442;2022-12-29T08:09:52;11.50;89.10
43894;DHT22;29556;50.846;4.442;2022-12-29T08:12:17;11.40;88.40
43894;DHT22;29556;50.846;4.442;2022-12-29T08:14:43;11.50;88.60
43894;DHT22;29556;50.846;4.442;2022-12-29T08:17:09;11.50;88.00
43894;DHT22;29556;50.846;4.442;2022-12-29T08:19:35;11.40;87.20
43894;DHT22;29556;50.846;4.442;2022-12-29T08:22:01;11.40;87.70
43894;DHT22;29556;50.846;4.442;2022-12-29T08:24:26;11.40;87.90
43894;DHT22;29556;50.846;4.442;2022-12-29T08:26:52;11.40;87.40
43894;DHT22;29556;50.846;4.442;2022-12-29T08:29:18;11.50;87.50
43894;DHT22;29556;50.846;4.442;2022-12-29T08:31:44;11.50;87.30
43894;DHT22;29556;50.846;4.442;2022-12-29T08:34:10;11.50;87.20
43894;DHT22;29556;50.846;4.442;2022-12-29T08:36:36;11.40;85.70
43894;DHT22;29556;50.846;4.442;2022-12-29T08:39:02;11.50;87.10
43894;DHT22;29556;50.846;4.442;2022-12-29T08:41:28;11.50;86.60
43894;DHT22;29556;50.846;4.442;2022-12-29T08:43:54;11.50;84.90
43894;DHT22;29556;50.846;4.442;2022-12-29T08:46:19;11.50;86.30
43894;DHT22;29556;50.846;4.442;2022-12-29T08:48:45;11.50;85.10
43894;DHT22;29556;50.846;4.442;2022-12-29T08:51:11;11.50;85.90
43894;DHT22;29556;50.846;4.442;2022-12-29T08:53:36;11.50;85.40
43894;DHT22;29556;50.846;4.442;2022-12-29T08:56:02;11.50;85.30
43894;DHT22;29556;50.846;4.442;2022-12-29T08:58:29;11.60;85.10
43894;DHT22;29556;50.846;4.442;2022-12-29T09:00:57;11.60;84.70
43894;DHT22;29556;50.846;4.442;2022-12-29T09:03:23;11.60;84.40
43894;DHT22;29556;50.846;4.442;2022-12-29T09:05:53;11.70;84.40
43894;DHT22;29556;50.846;4.442;2022-12-29T09:08:19;11.50;84.30
43894;DHT22;29556;50.846;4.442;2022-12-29T09:10:45;11.50;84.60
43894;DHT22;29556;50.846;4.442;2022-12-29T09:13:12;11.60;84.50
43894;DHT22;29556;50.846;4.442;2022-12-29T09:15:38;11.50;85.00
43894;DHT22;29556;50.846;4.442;2022-12-29T09:18:05;11.50;84.90
43894;DHT22;29556;50.846;4.442;2022-12-29T09:20:31;11.60;84.80
43894;DHT22;29556;50.846;4.442;2022-12-29T09:22:57;11.60;85.10
43894;DHT22;29556;50.846;4.442;2022-12-29T09:25:22;11.70;84.50
43894;DHT22;29556;50.846;4.442;2022-12-29T09:27:50;11.60;83.80
43894;DHT22;29556;50.846;4.442;2022-12-29T09:30:18;11.60;84.00
43894;DHT22;29556;50.846;4.442;2022-12-29T09:32:44;11.70;85.10
43894;DHT22;29556;50.846;4.442;2022-12-29T09:35:09;11.60;84.90
43894;DHT22;29556;50.846;4.442;2022-12-29T09:37:35;11.50;86.40
43894;DHT22;29556;50.846;4.442;2022-12-29T09:40:01;11.50;86.20
43894;DHT22;29556;50.846;4.442;2022-12-29T09:42:45;11.60;85.30
43894;DHT22;29556;50.846;4.442;2022-12-29T09:45:20;11.40;85.00
43894;DHT22;29556;50.846;4.442;2022-12-29T09:47:48;11.40;85.10
43894;DHT22;29556;50.846;4.442;2022-12-29T09:50:19;11.50;85.40
43894;DHT22;29556;50.846;4.442;2022-12-29T09:52:52;11.50;84.40
43894;DHT22;29556;50.846;4.442;2022-12-29T09:55:47;11.60;84.50
43894;DHT22;29556;50.846;4.442;2022-12-29T09:58:16;11.60;83.90
43894;DHT22;29556;50.846;4.442;2022-12-29T10:00:54;11.70;82.30
43894;DHT22;29556;50.846;4.442;2022-12-29T10:03:25;11.70;82.60
43894;DHT22;29556;50.846;4.442;2022-12-29T10:06:15;11.80;83.30
43894;DHT22;29556;50.846;4.442;2022-12-29T10:09:11;11.70;82.60
43894;DHT22;29556;50.846;4.442;2022-12-29T10:19:57;11.80;82.00
43894;DHT22;29556;50.846;4.442;2022-12-29T10:25:07;11.80;81.20
43894;DHT22;29556;50.846;4.442;2022-12-29T10:27:36;11.80;81.10
43894;DHT22;29556;50.846;4.442;2022-12-29T10:30:02;11.80;81.50
43894;DHT22;29556;50.846;4.442;2022-12-29T10:32:36;11.80;81.30
43894;DHT22;29556;50.846;4.442;2022-12-29T10:35:42;11.80;80.60
43894;DHT22;29556;50.846;4.442;2022-12-29T10:38:35;11.80;80.60
43894;DHT22;29556;50.846;4.442;2022-12-29T10:41:34;11.80;80.90
43894;DHT22;29556;50.846;4.442;2022-12-29T10:44:01;11.90;80.80
43894;DHT22;29556;50.846;4.442;2022-12-29T10:46:35;11.90;81.00
43894;DHT22;29556;50.846;4.442;2022-12-29T10:49:02;12.00;80.60
43894;DHT22;29556;50.846;4.442;2022-12-29T10:51:34;12.00;80.00
43894;DHT22;29556;50.846;4.442;2022-12-29T10:54:06;12.00;79.60
43894;DHT22;29556;50.846;4.442;2022-12-29T10:56:43;12.00;80.00
43894;DHT22;29556;50.846;4.442;2022-12-29T10:59:21;12.10;79.90
43894;DHT22;29556;50.846;4.442;2022-12-29T11:07:22;12.40;79.80
43894;DHT22;29556;50.846;4.442;2022-12-29T11:09:48;12.40;79.40
43894;DHT22;29556;50.846;4.442;2022-12-29T11:12:30;12.50;79.10
43894;DHT22;29556;50.846;4.442;2022-12-29T11:17:50;12.60;79.00
43894;DHT22;29556;50.846;4.442;2022-12-29T11:20:33;12.40;78.40
43894;DHT22;29556;50.846;4.442;2022-12-29T11:23:02;12.40;78.40
43894;DHT22;29556;50.846;4.442;2022-12-29T11:25:28;12.50;79.00
43894;DHT22;29556;50.846;4.442;2022-12-29T11:30:29;12.80;78.10
43894;DHT22;29556;50.846;4.442;2022-12-29T11:32:56;12.70;78.00
43894;DHT22;29556;50.846;4.442;2022-12-29T11:35:31;12.70;77.80
43894;DHT22;29556;50.846;4.442;2022-12-29T11:37:58;12.60;77.90
43894;DHT22;29556;50.846;4.442;2022-12-29T11:40:25;12.50;78.90
43894;DHT22;29556;50.846;4.442;2022-12-29T11:42:54;12.50;79.40
43894;DHT22;29556;50.846;4.442;2022-12-29T11:45:21;12.50;80.20
43894;DHT22;29556;50.846;4.442;2022-12-29T11:48:01;12.30;80.10
43894;DHT22;29556;50.846;4.442;2022-12-29T11:50:32;12.30;80.60
43894;DHT22;29556;50.846;4.442;2022-12-29T11:53:23;12.30;80.60
43894;DHT22;29556;50.846;4.442;2022-12-29T11:55:59;12.20;80.80
43894;DHT22;29556;50.846;4.442;2022-12-29T11:58:34;12.30;80.60
43894;DHT22;29556;50.846;4.442;2022-12-29T12:04:05;12.20;80.10
43894;DHT22;29556;50.846;4.442;2022-12-29T12:06:36;12.10;80.30
43894;DHT22;29556;50.846;4.442;2022-12-29T12:09:07;12.10;81.10
43894;DHT22;29556;50.846;4.442;2022-12-29T12:11:39;12.10;81.10
43894;DHT22;29556;50.846;4.442;2022-12-29T12:14:20;12.10;81.10
43894;DHT22;29556;50.846;4.442;2022-12-29T12:16:55;12.10;81.20
43894;DHT22;29556;50.846;4.442;2022-12-29T12:19:48;12.00;80.80
43894;DHT22;29556;50.846;4.442;2022-12-29T12:25:04;12.00;80.80
43894;DHT22;29556;50.846;4.442;2022-12-29T12:27:39;12.00;81.00
43894;DHT22;29556;50.846;4.442;2022-12-29T12:30:15;12.10;81.40
43894;DHT22;29556;50.846;4.442;2022-12-29T12:33:01;12.00;81.70
43894;DHT22;29556;50.846;4.442;2022-12-29T12:38:37;12.00;82.30
43894;DHT22;29556;50.846;4.442;2022-12-29T12:43:39;12.10;82.70
43894;DHT22;29556;50.846;4.442;2022-12-29T12:46:13;12.20;82.30
43894;DHT22;29556;50.846;4.442;2022-12-29T13:00:16;12.20;81.10
43894;DHT22;29556;50.846;4.442;2022-12-29T13:14:20;12.10;80.10
43894;DHT22;29556;50.846;4.442;2022-12-29T13:17:02;12.00;80.20
43894;DHT22;29556;50.846;4.442;2022-12-29T13:19:40;12.00;80.40
43894;DHT22;29556;50.846;4.442;2022-12-29T13:22:21;11.90;80.00
43894;DHT22;29556;50.846;4.442;2022-12-29T13:33:37;11.90;80.50
43894;DHT22;29556;50.846;4.442;2022-12-29T13:36:28;11.90;80.80
43894;DHT22;29556;50.846;4.442;2022-12-29T13:39:05;11.80;80.90
43894;DHT22;29556;50.846;4.442;2022-12-29T13:41:45;11.90;82.10
43894;DHT22;29556;50.846;4.442;2022-12-29T13:44:17;11.90;81.40
43894;DHT22;29556;50.846;4.442;2022-12-29T13:46:46;12.00;81.30
43894;DHT22;29556;50.846;4.442;2022-12-29T13:49:17;12.10;81.50
43894;DHT22;29556;50.846;4.442;2022-12-29T13:51:48;11.90;80.30
43894;DHT22;29556;50.846;4.442;2022-12-29T13:57:10;11.90;80.60
43894;DHT22;29556;50.846;4.442;2022-12-29T13:59:54;11.70;80.80
43894;DHT22;29556;50.846;4.442;2022-12-29T14:05:26;11.90;81.10
43894;DHT22;29556;50.846;4.442;2022-12-29T14:08:03;11.80;80.90
43894;DHT22;29556;50.846;4.442;2022-12-29T14:13:24;11.80;81.20
43894;DHT22;29556;50.846;4.442;2022-12-29T14:15:55;11.80;81.30
43894;DHT22;29556;50.846;4.442;2022-12-29T14:18:26;11.80;81.20
43894;DHT22;29556;50.846;4.442;2022-12-29T14:20:58;11.70;80.60
43894;DHT22;29556;50.846;4.442;2022-12-29T14:28:53;11.70;80.60
43894;DHT22;29556;50.846;4.442;2022-12-29T14:39:35;11.80;80.70
43894;DHT22;29556;50.846;4.442;2022-12-29T14:42:21;11.90;80.10
43894;DHT22;29556;50.846;4.442;2022-12-29T14:45:00;11.90;79.50
43894;DHT22;29556;50.846;4.442;2022-12-29T14:47:32;11.90;79.20
43894;DHT22;29556;50.846;4.442;2022-12-29T14:52:44;11.80;78.40
43894;DHT22;29556;50.846;4.442;2022-12-29T14:58:05;11.60;79.10
43894;DHT22;29556;50.846;4.442;2022-12-29T15:00:33;11.50;79.60
43894;DHT22;29556;50.846;4.442;2022-12-29T15:03:11;11.40;80.30
43894;DHT22;29556;50.846;4.442;2022-12-29T15:05:47;11.40;81.00
43894;DHT22;29556;50.846;4.442;2022-12-29T15:08:18;11.30;81.40
43894;DHT22;29556;50.846;4.442;2022-12-29T15:10:53;11.40;82.50
43894;DHT22;29556;50.846;4.442;2022-12-29T15:13:33;11.20;84.80
43894;DHT22;29556;50.846;4.442;2022-12-29T15:16:00;11.00;88.20
43894;DHT22;29556;50.846;4.442;2022-12-29T15:18:29;10.70;89.40
43894;DHT22;29556;50.846;4.442;2022-12-29T15:21:04;10.60;90.30
43894;DHT22;29556;50.846;4.442;2022-12-29T15:23:32;10.40;91.00
43894;DHT22;29556;50.846;4.442;2022-12-29T15:26:07;10.20;91.30
43894;DHT22;29556;50.846;4.442;2022-12-29T15:28:46;10.10;91.10
43894;DHT22;29556;50.846;4.442;2022-12-29T15:33:42;10.00;91.80
43894;DHT22;29556;50.846;4.442;2022-12-29T15:36:23;9.90;91.50
43894;DHT22;29556;50.846;4.442;2022-12-29T15:38:49;9.90;91.70
43894;DHT22;29556;50.846;4.442;2022-12-29T15:41:25;9.90;91.70
43894;DHT22;29556;50.846;4.442;2022-12-29T15:43:58;9.90;91.60
43894;DHT22;29556;50.846;4.442;2022-12-29T15:46:26;9.90;91.50
43894;DHT22;29556;50.846;4.442;2022-12-29T15:48:52;10.00;91.70
43894;DHT22;29556;50.846;4.442;2022-12-29T15:51:34;10.00;91.70
43894;DHT22;29556;50.846;4.442;2022-12-29T15:54:01;9.90;91.70
43894;DHT22;29556;50.846;4.442;2022-12-29T15:56:31;10.00;91.70
43894;DHT22;29556;50.846;4.442;2022-12-29T15:58:58;10.00;91.60
43894;DHT22;29556;50.846;4.442;2022-12-29T16:01:31;10.10;91.80
43894;DHT22;29556;50.846;4.442;2022-12-29T16:04:04;10.20;92.10
43894;DHT22;29556;50.846;4.442;2022-12-29T16:06:39;10.10;91.60
43894;DHT22;29556;50.846;4.442;2022-12-29T16:09:28;10.10;91.60
43894;DHT22;29556;50.846;4.442;2022-12-29T16:11:57;10.10;91.60
43894;DHT22;29556;50.846;4.442;2022-12-29T16:14:47;10.10;91.50
43894;DHT22;29556;50.846;4.442;2022-12-29T16:17:16;10.00;91.60
43894;DHT22;29556;50.846;4.442;2022-12-29T16:19:50;9.90;91.60
43894;DHT22;29556;50.846;4.442;2022-12-29T16:22:32;9.90;91.70
43894;DHT22;29556;50.846;4.442;2022-12-29T16:25:15;9.90;91.70
43894;DHT22;29556;50.846;4.442;2022-12-29T16:27:42;9.90;91.60
43894;DHT22;29556;50.846;4.442;2022-12-29T16:30:24;9.90;91.60
43894;DHT22;29556;50.846;4.442;2022-12-29T16:32:52;9.90;91.70
43894;DHT22;29556;50.846;4.442;2022-12-29T16:35:20;10.00;91.70
43894;DHT22;29556;50.846;4.442;2022-12-29T16:37:47;9.90;91.50
43894;DHT22;29556;50.846;4.442;2022-12-29T16:42:48;9.90;91.50
43894;DHT22;29556;50.846;4.442;2022-12-29T16:48:18;9.90;91.40
43894;DHT22;29556;50.846;4.442;2022-12-29T16:50:45;9.80;91.20
43894;DHT22;29556;50.846;4.442;2022-12-29T16:53:21;9.90;91.10
43894;DHT22;29556;50.846;4.442;2022-12-29T16:55:50;9.90;91.10
43894;DHT22;29556;50.846;4.442;2022-12-29T16:58:21;9.90;91.10
43894;DHT22;29556;50.846;4.442;2022-12-29T17:00:47;9.90;91.10
43894;DHT22;29556;50.846;4.442;2022-12-29T17:03:13;10.00;91.00
43894;DHT22;29556;50.846;4.442;2022-12-29T17:05:39;10.10;91.00
43894;DHT22;29556;50.846;4.442;2022-12-29T17:08:17;9.90;90.80
43894;DHT22;29556;50.846;4.442;2022-12-29T17:10:51;9.90;90.70
43894;DHT22;29556;50.846;4.442;2022-12-29T17:13:37;9.90;90.70
43894;DHT22;29556;50.846;4.442;2022-12-29T17:16:05;9.90;90.70
43894;DHT22;29556;50.846;4.442;2022-12-29T17:18:33;9.70;90.60
43894;DHT22;29556;50.846;4.442;2022-12-29T17:21:00;9.80;90.70
43894;DHT22;29556;50.846;4.442;2022-12-29T17:23:25;9.70;90.60
43894;DHT22;29556;50.846;4.442;2022-12-29T17:25:53;9.80;90.70
43894;DHT22;29556;50.846;4.442;2022-12-29T17:28:21;9.60;90.60
43894;DHT22;29556;50.846;4.442;2022-12-29T17:30:48;9.60;90.60
43894;DHT22;29556;50.846;4.442;2022-12-29T17:33:18;9.70;90.50
43894;DHT22;29556;50.846;4.442;2022-12-29T17:35:44;9.60;90.30
43894;DHT22;29556;50.846;4.442;2022-12-29T17:38:17;9.60;90.10
43894;DHT22;29556;50.846;4.442;2022-12-29T17:40:43;9.50;90.10
43894;DHT22;29556;50.846;4.442;2022-12-29T17:43:12;9.60;90.50
43894;DHT22;29556;50.846;4.442;2022-12-29T17:45:39;9.60;90.00
43894;DHT22;29556;50.846;4.442;2022-12-29T17:48:11;9.50;89.90
43894;DHT22;29556;50.846;4.442;2022-12-29T17:50:37;9.50;89.60
43894;DHT22;29556;50.846;4.442;2022-12-29T17:53:05;9.50;89.30
43894;DHT22;29556;50.846;4.442;2022-12-29T17:55:32;9.50;89.60
43894;DHT22;29556;50.846;4.442;2022-12-29T17:57:58;9.70;89.40
43894;DHT22;29556;50.846;4.442;2022-12-29T18:00:29;9.60;89.00
43894;DHT22;29556;50.846;4.442;2022-12-29T18:02:55;9.50;88.70
43894;DHT22;29556;50.846;4.442;2022-12-29T18:05:27;9.60;88.90
43894;DHT22;29556;50.846;4.442;2022-12-29T18:07:54;9.50;88.40
43894;DHT22;29556;50.846;4.442;2022-12-29T18:10:21;9.50;88.70